Time;durP1;ratioP1;P1;durP2;ratioP2;P2;SDS_P1;SDS_P2;PMS_P1;PMS_P2;Temp;Humidity;BMP_temperature;BMP_pressure;BME280_temperature;BME280_humidity;BME280_pressure;Samples;Min_cycle;Max_cycle;Signal;HPM_P1;HPM_P2
2023/03/19 00:00:25;;;;;;;13.02;5.35;;;11.90;99.90;;;;;;4997036;28;20053;-68
2023/03/19 00:02:51;;;;;;;10.80;5.97;;;11.80;99.90;;;;;;4996893;28;20030;-69
2023/03/19 00:05:17;;;;;;;11.85;5.65;;;11.70;99.90;;;;;;4997294;28;20120;-69
2023/03/19 00:07:43;;;;;;;14.70;6.40;;;11.60;99.90;;;;;;4997620;28;20034;-69
2023/03/19 00:10:09;;;;;;;13.38;5.57;;;11.60;99.90;;;;;;4997136;28;20029;-69
2023/03/19 00:12:35;;;;;;;11.57;5.55;;;11.60;99.90;;;;;;4996844;28;20030;-69
2023/03/19 00:15:01;;;;;;;15.20;5.82;;;11.60;99.90;;;;;;5021291;23;20038;-65
2023/03/19 00:17:26;;;;;;;15.25;7.15;;;11.40;99.90;;;;;;4997680;28;20034;-66
2023/03/19 00:19:52;;;;;;;12.88;7.07;;;11.50;99.90;;;;;;5013877;28;20026;-65
2023/03/19 00:22:18;;;;;;;15.63;7.00;;;11.40;99.90;;;;;;4998127;28;20026;-65
2023/03/19 00:24:43;;;;;;;9.90;5.28;;;11.10;99.90;;;;;;5013415;28;20058;-66
2023/03/19 00:27:09;;;;;;;10.07;4.97;;;11.00;99.90;;;;;;5014341;28;20030;-65
2023/03/19 00:29:35;;;;;;;10.20;4.95;;;11.00;99.90;;;;;;5013452;28;20042;-65
2023/03/19 00:32:01;;;;;;;10.13;4.90;;;11.10;99.90;;;;;;5013690;28;20085;-65
2023/03/19 00:34:27;;;;;;;11.35;5.45;;;11.30;99.90;;;;;;5014577;28;20030;-66
2023/03/19 00:36:52;;;;;;;12.85;5.65;;;11.40;99.90;;;;;;5014628;28;20014;-65
2023/03/19 00:39:18;;;;;;;15.73;6.20;;;11.60;99.90;;;;;;5015538;28;20027;-65
2023/03/19 00:41:49;;;;;;;10.07;5.60;;;11.70;99.90;;;;;;5014557;28;20121;-65
2023/03/19 00:44:16;;;;;;;12.98;6.07;;;11.70;99.90;;;;;;5015036;28;20027;-65
2023/03/19 00:46:41;;;;;;;13.40;6.25;;;11.70;99.90;;;;;;5014662;28;20026;-66
2023/03/19 00:49:07;;;;;;;8.90;5.32;;;11.60;99.90;;;;;;4999043;28;20100;-66
2023/03/19 00:51:32;;;;;;;10.15;5.55;;;11.30;99.90;;;;;;5014060;28;20022;-66
2023/03/19 00:53:58;;;;;;;11.95;4.53;;;11.30;99.90;;;;;;5013729;28;20085;-66
2023/03/19 00:56:23;;;;;;;9.40;4.30;;;11.20;99.90;;;;;;4996716;28;20054;-66
2023/03/19 00:58:49;;;;;;;9.80;4.97;;;11.20;99.90;;;;;;5013385;28;20022;-66
2023/03/19 01:01:17;;;;;;;12.52;4.38;;;11.10;99.90;;;;;;5012957;28;20022;-66
2023/03/19 01:03:44;;;;;;;9.35;4.18;;;11.20;99.90;;;;;;5012980;28;20054;-66
2023/03/19 01:06:10;;;;;;;9.38;4.50;;;11.30;99.90;;;;;;5014340;28;20018;-66
2023/03/19 01:08:36;;;;;;;9.40;4.50;;;11.30;99.90;;;;;;5016597;28;20050;-66
2023/03/19 01:11:10;;;;;;;10.75;4.75;;;11.40;99.90;;;;;;5017059;28;20026;-66
2023/03/19 01:13:36;;;;;;;10.88;4.68;;;11.40;99.90;;;;;;5011016;28;20025;-66
2023/03/19 01:16:02;;;;;;;16.75;5.40;;;11.50;99.90;;;;;;5020698;28;20018;-65
2023/03/19 01:18:27;;;;;;;13.27;4.72;;;11.50;99.90;;;;;;5019567;28;20030;-66
2023/03/19 01:20:53;;;;;;;13.30;5.28;;;11.50;99.90;;;;;;5019530;28;20096;-66
2023/03/19 01:23:19;;;;;;;12.93;4.93;;;11.50;99.90;;;;;;5020096;28;20032;-66
2023/03/19 01:25:45;;;;;;;11.40;4.72;;;11.50;99.90;;;;;;5020599;28;20030;-66
2023/03/19 01:28:11;;;;;;;10.93;4.95;;;11.60;99.90;;;;;;5020463;28;20105;-66
2023/03/19 01:30:36;;;;;;;10.82;5.28;;;11.60;99.90;;;;;;5020969;28;20049;-66
2023/03/19 01:33:02;;;;;;;10.20;5.20;;;11.60;99.90;;;;;;5020377;28;20030;-66
2023/03/19 01:35:27;;;;;;;9.55;4.95;;;11.60;99.90;;;;;;5020598;28;20030;-66
2023/03/19 01:37:53;;;;;;;9.25;5.28;;;11.50;99.90;;;;;;5020007;28;20057;-66
2023/03/19 01:40:19;;;;;;;9.63;5.03;;;11.50;99.90;;;;;;5020616;28;20022;-66
2023/03/19 01:46:25;;;;;;;14.70;4.65;;;11.40;99.90;;;;;;5021261;28;20033;-66
2023/03/19 01:48:53;;;;;;;11.23;6.43;;;11.50;99.90;;;;;;5019834;28;20026;-66
2023/03/19 01:51:25;;;;;;;11.40;5.03;;;11.50;99.90;;;;;;5019504;28;20076;-66
2023/03/19 01:53:59;;;;;;;12.07;5.50;;;11.50;99.90;;;;;;5020058;28;20022;-66
2023/03/19 01:56:35;;;;;;;21.33;5.50;;;11.20;99.90;;;;;;5019644;28;20049;-66
2023/03/19 01:59:13;;;;;;;11.07;4.95;;;11.20;99.90;;;;;;5020015;28;20052;-66
2023/03/19 02:02:01;;;;;;;9.77;4.57;;;11.30;99.90;;;;;;5020789;28;20026;-66
2023/03/19 02:04:28;;;;;;;11.38;5.95;;;11.30;99.90;;;;;;5019701;28;20182;-66
2023/03/19 02:06:58;;;;;;;10.50;5.20;;;11.40;99.90;;;;;;5022268;28;20022;-66
2023/03/19 02:09:26;;;;;;;9.43;4.93;;;11.40;99.90;;;;;;5023161;28;20033;-65
2023/03/19 02:11:53;;;;;;;13.48;6.47;;;11.40;99.90;;;;;;5019201;28;20072;-66
2023/03/19 02:14:18;;;;;;;14.75;5.05;;;11.30;99.90;;;;;;5019292;28;20124;-66
2023/03/19 02:16:44;;;;;;;9.55;4.95;;;11.10;99.90;;;;;;5019180;28;20053;-66
2023/03/19 02:19:16;;;;;;;14.05;5.10;;;11.00;99.90;;;;;;5019235;28;20092;-66
2023/03/19 02:21:41;;;;;;;10.80;5.53;;;11.00;99.90;;;;;;5018532;28;20030;-66
2023/03/19 02:24:16;;;;;;;15.70;5.68;;;11.00;99.90;;;;;;5018573;28;20040;-66
2023/03/19 02:26:45;;;;;;;11.57;5.93;;;10.80;99.90;;;;;;5019025;28;20049;-66
2023/03/19 02:29:11;;;;;;;11.82;6.00;;;10.90;99.90;;;;;;5018725;28;20026;-66
2023/03/19 02:31:36;;;;;;;9.38;4.90;;;11.00;99.90;;;;;;5018462;28;20121;-66
2023/03/19 02:34:05;;;;;;;13.80;5.13;;;11.00;99.90;;;;;;5018593;28;20026;-66
2023/03/19 02:36:36;;;;;;;11.18;5.43;;;11.10;99.90;;;;;;5018661;28;20033;-66
2023/03/19 02:39:06;;;;;;;14.63;6.50;;;11.10;99.90;;;;;;5019225;28;20087;-66
2023/03/19 02:41:33;;;;;;;16.63;5.55;;;11.10;99.90;;;;;;5018260;28;20030;-66
2023/03/19 02:44:02;;;;;;;12.00;5.72;;;11.20;99.90;;;;;;5019391;28;20026;-66
2023/03/19 02:46:27;;;;;;;11.32;6.40;;;11.20;99.90;;;;;;5017877;28;20032;-66
2023/03/19 02:48:53;;;;;;;11.43;5.45;;;11.10;99.90;;;;;;5018655;28;20030;-66
2023/03/19 02:51:18;;;;;;;17.90;5.40;;;11.10;99.90;;;;;;5018369;28;20036;-66
2023/03/19 02:53:44;;;;;;;9.65;5.50;;;11.20;99.90;;;;;;5018009;28;20072;-66
2023/03/19 02:56:10;;;;;;;12.88;5.18;;;11.10;99.90;;;;;;5018616;28;20024;-66
2023/03/19 02:58:36;;;;;;;10.15;5.35;;;11.10;99.90;;;;;;5018000;28;20121;-66
2023/03/19 03:01:01;;;;;;;10.85;4.70;;;11.20;99.90;;;;;;5017647;28;20018;-66
2023/03/19 03:03:27;;;;;;;12.07;5.35;;;11.10;99.90;;;;;;5017966;28;20056;-66
2023/03/19 03:05:52;;;;;;;10.00;5.05;;;10.90;99.90;;;;;;5017521;28;20113;-66
2023/03/19 03:08:18;;;;;;;10.90;5.50;;;10.80;99.90;;;;;;5018235;28;20021;-66
2023/03/19 03:10:43;;;;;;;11.63;5.38;;;10.70;99.90;;;;;;5018284;28;20014;-66
2023/03/19 03:13:09;;;;;;;16.55;6.50;;;10.90;99.90;;;;;;5017248;28;20022;-66
2023/03/19 03:15:34;;;;;;;14.68;5.70;;;10.90;99.90;;;;;;5018469;28;20036;-66
2023/03/19 03:18:00;;;;;;;11.60;5.43;;;10.90;99.90;;;;;;5017245;28;20026;-66
2023/03/19 03:20:26;;;;;;;9.48;5.15;;;10.90;99.90;;;;;;5018097;28;20026;-66
2023/03/19 03:22:52;;;;;;;11.05;5.32;;;11.00;99.90;;;;;;5017283;28;20030;-66
2023/03/19 03:25:18;;;;;;;9.75;5.18;;;11.10;99.90;;;;;;5017885;28;20022;-66
2023/03/19 03:27:43;;;;;;;11.50;5.35;;;11.10;99.90;;;;;;5017978;28;20036;-66
2023/03/19 03:30:09;;;;;;;12.55;5.45;;;11.20;99.90;;;;;;5016286;28;20022;-66
2023/03/19 03:32:36;;;;;;;13.57;6.18;;;11.20;99.90;;;;;;5017018;28;20032;-66
2023/03/19 03:35:04;;;;;;;10.73;5.03;;;11.10;99.90;;;;;;5017967;28;20064;-66
2023/03/19 03:37:29;;;;;;;11.38;5.25;;;11.00;99.90;;;;;;5017049;28;20028;-66
2023/03/19 03:39:55;;;;;;;9.73;6.00;;;10.80;99.90;;;;;;5016908;28;20029;-66
2023/03/19 03:42:20;;;;;;;11.05;5.28;;;10.80;99.90;;;;;;5017225;28;20042;-66
2023/03/19 03:44:46;;;;;;;9.23;5.18;;;10.90;99.90;;;;;;5017462;28;20026;-66
2023/03/19 03:47:12;;;;;;;11.43;5.15;;;10.90;99.90;;;;;;5016894;28;20026;-66
2023/03/19 03:49:37;;;;;;;15.18;5.68;;;10.80;99.90;;;;;;5016643;28;20022;-66
2023/03/19 03:52:03;;;;;;;9.18;5.60;;;10.80;99.90;;;;;;5016728;28;20076;-66
2023/03/19 03:54:29;;;;;;;13.05;5.80;;;10.80;99.90;;;;;;5017552;28;20101;-66
2023/03/19 03:56:55;;;;;;;13.60;6.00;;;10.80;99.90;;;;;;5016990;28;20093;-66
2023/03/19 03:59:20;;;;;;;12.00;6.13;;;10.90;99.90;;;;;;5016752;28;20033;-66
2023/03/19 04:01:46;;;;;;;14.48;5.80;;;10.90;99.90;;;;;;5017400;28;20025;-66
2023/03/19 04:04:11;;;;;;;10.55;6.07;;;10.90;99.90;;;;;;5016597;28;20026;-66
2023/03/19 04:06:37;;;;;;;11.35;5.88;;;11.00;99.90;;;;;;5016851;28;20060;-66
2023/03/19 04:09:02;;;;;;;9.98;4.95;;;11.00;99.90;;;;;;5017225;28;20088;-66
2023/03/19 04:11:28;;;;;;;11.38;5.57;;;11.00;99.90;;;;;;5016804;28;20080;-66
2023/03/19 04:13:56;;;;;;;14.05;7.15;;;10.90;99.90;;;;;;5016880;28;20026;-66
2023/03/19 04:16:28;;;;;;;11.10;5.82;;;10.90;99.90;;;;;;5017289;28;20024;-66
2023/03/19 04:18:53;;;;;;;13.65;5.53;;;10.80;99.90;;;;;;5017288;28;20022;-66
2023/03/19 04:21:20;;;;;;;16.90;5.50;;;10.60;99.90;;;;;;5016452;28;20036;-66
2023/03/19 04:23:45;;;;;;;9.75;5.60;;;10.60;99.90;;;;;;5017207;28;20099;-66
2023/03/19 04:26:12;;;;;;;11.63;5.07;;;10.50;99.90;;;;;;5016345;28;20089;-66
2023/03/19 04:28:37;;;;;;;10.43;5.38;;;10.50;99.90;;;;;;5016958;28;20049;-66
2023/03/19 04:31:06;;;;;;;12.82;5.72;;;10.50;99.90;;;;;;5016295;28;20022;-66
2023/03/19 04:33:32;;;;;;;14.23;5.82;;;10.60;99.90;;;;;;5016434;28;20025;-66
2023/03/19 04:35:58;;;;;;;12.88;5.38;;;10.70;99.90;;;;;;5016223;28;20026;-66
2023/03/19 04:38:27;;;;;;;14.90;4.63;;;10.80;99.90;;;;;;5016207;28;20125;-66
2023/03/19 04:40:54;;;;;;;11.75;5.45;;;10.90;99.90;;;;;;5017441;28;20033;-66
2023/03/19 04:43:23;;;;;;;11.35;5.28;;;10.90;99.90;;;;;;5020181;28;20029;-66
2023/03/19 04:45:49;;;;;;;10.35;6.00;;;10.90;99.90;;;;;;5020885;28;20022;-66
2023/03/19 04:48:17;;;;;;;10.60;5.63;;;10.70;99.90;;;;;;5020988;28;20065;-66
2023/03/19 04:50:44;;;;;;;10.02;4.82;;;10.60;99.90;;;;;;5021050;28;20018;-66
2023/03/19 04:53:10;;;;;;;12.00;5.40;;;10.50;99.90;;;;;;5019876;28;20018;-66
2023/03/19 04:55:36;;;;;;;10.38;4.93;;;10.50;99.90;;;;;;5020371;28;20022;-66
2023/03/19 04:58:01;;;;;;;14.45;5.10;;;10.50;99.90;;;;;;5021021;28;20018;-66
2023/03/19 05:00:29;;;;;;;10.35;4.95;;;10.50;99.90;;;;;;5020038;28;20071;-66
2023/03/19 05:02:55;;;;;;;12.20;5.05;;;10.60;99.90;;;;;;5021021;28;20113;-66
2023/03/19 05:05:21;;;;;;;12.10;5.30;;;10.50;99.90;;;;;;5019846;28;20026;-66
2023/03/19 05:07:46;;;;;;;7.28;4.85;;;10.50;99.90;;;;;;5020132;28;20025;-66
2023/03/19 05:10:12;;;;;;;11.48;5.45;;;10.50;99.90;;;;;;5020748;28;20028;-66
2023/03/19 05:12:37;;;;;;;14.45;5.40;;;10.50;99.90;;;;;;5020585;28;20156;-66
2023/03/19 05:15:04;;;;;;;14.13;5.07;;;10.50;99.90;;;;;;5021485;28;20026;-66
2023/03/19 05:17:30;;;;;;;11.43;5.38;;;10.40;99.90;;;;;;5020488;28;20038;-66
2023/03/19 05:19:56;;;;;;;18.25;5.85;;;10.40;99.90;;;;;;5019592;28;20097;-66
2023/03/19 05:22:22;;;;;;;12.15;5.45;;;10.30;99.90;;;;;;5019734;28;20062;-66
2023/03/19 05:24:48;;;;;;;12.05;6.63;;;10.30;99.90;;;;;;5019752;28;20084;-66
2023/03/19 05:27:14;;;;;;;15.63;5.25;;;10.20;99.90;;;;;;5020340;28;20021;-66
2023/03/19 05:29:39;;;;;;;8.85;5.63;;;10.30;99.90;;;;;;5019147;28;20029;-66
2023/03/19 05:32:05;;;;;;;11.73;5.65;;;10.50;99.90;;;;;;5020219;28;20048;-66
2023/03/19 05:34:31;;;;;;;11.02;5.45;;;10.60;99.90;;;;;;5019220;28;20060;-66
2023/03/19 05:36:57;;;;;;;11.57;5.40;;;10.50;99.90;;;;;;5020350;28;20022;-66
2023/03/19 05:39:23;;;;;;;12.02;5.22;;;10.50;99.90;;;;;;5019374;28;20041;-66
2023/03/19 05:41:49;;;;;;;9.50;5.25;;;10.50;99.90;;;;;;5019031;28;20033;-66
2023/03/19 05:44:15;;;;;;;12.00;5.75;;;10.60;99.90;;;;;;5019075;28;20057;-66
2023/03/19 05:46:42;;;;;;;13.80;6.70;;;10.60;99.90;;;;;;5019922;28;20028;-66
2023/03/19 05:49:08;;;;;;;9.40;5.32;;;10.50;99.90;;;;;;5019732;28;20029;-66
2023/03/19 05:51:34;;;;;;;10.60;5.75;;;10.50;99.90;;;;;;5020174;28;20081;-66
2023/03/19 05:54:01;;;;;;;16.90;6.38;;;10.60;99.90;;;;;;5018981;28;20022;-66
2023/03/19 05:56:27;;;;;;;13.80;5.30;;;10.60;99.90;;;;;;5018925;28;20026;-66
2023/03/19 05:58:52;;;;;;;12.20;6.43;;;10.60;99.90;;;;;;5019055;28;20026;-66
2023/03/19 06:01:18;;;;;;;9.90;4.72;;;10.60;99.90;;;;;;5019710;28;20026;-66
2023/03/19 06:03:44;;;;;;;15.18;5.15;;;10.50;99.90;;;;;;5018799;28;20049;-66
2023/03/19 06:06:09;;;;;;;10.43;4.95;;;10.40;99.90;;;;;;5018704;28;20103;-66
2023/03/19 06:08:35;;;;;;;11.40;6.25;;;10.20;99.90;;;;;;5019493;28;20089;-66
2023/03/19 06:11:00;;;;;;;9.35;6.05;;;10.20;99.90;;;;;;5018484;28;20028;-66
2023/03/19 06:15:54;;;;;;;9.85;5.63;;;9.90;99.90;;;;;;4979443;28;19929;-65
2023/03/19 06:18:20;;;;;;;15.55;5.65;;;10.00;99.90;;;;;;4980349;28;20035;-65
2023/03/19 06:20:46;;;;;;;7.13;4.60;;;10.00;99.90;;;;;;4980404;28;20024;-65
2023/03/19 06:23:12;;;;;;;10.85;5.18;;;10.00;99.90;;;;;;4979256;28;20033;-65
2023/03/19 06:25:38;;;;;;;15.73;5.90;;;10.00;99.90;;;;;;4979328;28;20126;-63
2023/03/19 06:28:04;;;;;;;11.40;5.15;;;10.00;99.90;;;;;;4979121;28;20029;-63
2023/03/19 06:30:30;;;;;;;10.07;5.55;;;10.00;99.90;;;;;;4980115;28;20034;-63
2023/03/19 06:32:56;;;;;;;11.30;5.30;;;10.00;99.90;;;;;;4980207;28;20026;-63
2023/03/19 06:35:21;;;;;;;14.52;5.30;;;10.10;99.90;;;;;;4979056;28;20165;-63
2023/03/19 06:37:47;;;;;;;9.98;5.32;;;10.10;99.90;;;;;;4979112;28;20030;-63
2023/03/19 06:40:21;;;;;;;9.07;5.20;;;10.20;99.90;;;;;;4978953;28;20030;-63
2023/03/19 06:42:47;;;;;;;15.70;6.38;;;10.30;99.90;;;;;;4979313;28;20034;-63
2023/03/19 06:45:17;;;;;;;9.65;5.55;;;10.30;99.90;;;;;;4979676;28;20035;-63
2023/03/19 06:47:45;;;;;;;9.50;4.95;;;10.40;99.90;;;;;;4979332;28;20027;-63
2023/03/19 06:50:11;;;;;;;9.93;5.13;;;10.50;99.90;;;;;;4979955;28;20019;-63
2023/03/19 06:52:37;;;;;;;14.30;5.80;;;10.60;99.90;;;;;;4978662;28;20030;-63
2023/03/19 06:55:04;;;;;;;13.13;5.72;;;10.60;99.90;;;;;;4979482;28;20027;-63
2023/03/19 06:57:29;;;;;;;10.45;5.43;;;10.60;99.90;;;;;;4979738;28;20039;-63
2023/03/19 06:59:55;;;;;;;12.25;6.05;;;10.60;99.90;;;;;;4979351;28;20029;-63
2023/03/19 07:02:21;;;;;;;14.32;5.72;;;10.60;99.90;;;;;;4979821;28;20019;-63
2023/03/19 07:04:47;;;;;;;13.43;6.05;;;10.70;99.90;;;;;;4978434;28;20026;-63
2023/03/19 07:07:13;;;;;;;14.57;5.82;;;10.70;99.90;;;;;;4978640;28;20027;-63
2023/03/19 07:09:38;;;;;;;13.40;6.22;;;10.70;99.90;;;;;;4978459;28;20038;-63
2023/03/19 07:12:04;;;;;;;12.68;5.63;;;10.80;99.90;;;;;;4978344;28;20027;-63
2023/03/19 07:14:29;;;;;;;10.80;6.15;;;10.80;99.90;;;;;;4979266;28;20031;-63
2023/03/19 07:16:55;;;;;;;16.92;7.10;;;10.90;99.90;;;;;;4978628;28;20113;-63
2023/03/19 07:19:21;;;;;;;11.82;7.07;;;11.00;99.90;;;;;;4978382;28;20082;-63
2023/03/19 07:21:47;;;;;;;14.73;6.80;;;11.10;99.90;;;;;;4979392;28;20023;-63
2023/03/19 07:24:13;;;;;;;14.40;7.07;;;11.20;99.90;;;;;;4978104;28;20029;-64
2023/03/19 07:26:39;;;;;;;12.70;7.15;;;11.30;99.90;;;;;;4979131;28;20089;-63
2023/03/19 07:29:05;;;;;;;10.80;6.45;;;11.30;99.90;;;;;;4978281;28;20034;-62
2023/03/19 07:31:30;;;;;;;12.45;7.05;;;11.30;99.90;;;;;;4979145;28;20023;-62
2023/03/19 07:33:56;;;;;;;10.90;6.57;;;11.20;99.90;;;;;;4979150;28;20015;-62
2023/03/19 07:36:22;;;;;;;15.07;6.47;;;11.10;99.90;;;;;;4978179;28;20022;-62
2023/03/19 07:38:47;;;;;;;14.20;7.22;;;11.10;99.90;;;;;;4978201;28;20030;-62
2023/03/19 07:41:13;;;;;;;14.55;6.85;;;11.00;99.90;;;;;;4977801;28;20031;-62
2023/03/19 07:43:38;;;;;;;14.90;6.78;;;11.10;99.90;;;;;;4978274;28;20030;-62
2023/03/19 07:46:05;;;;;;;15.63;6.18;;;11.10;99.90;;;;;;4978188;28;20048;-62
2023/03/19 07:48:30;;;;;;;16.58;7.53;;;11.20;99.90;;;;;;4978531;28;20066;-62
2023/03/19 07:50:56;;;;;;;14.60;7.20;;;11.30;99.90;;;;;;4978076;28;20090;-62
2023/03/19 07:53:21;;;;;;;12.48;7.03;;;11.30;99.90;;;;;;4977707;28;20114;-62
2023/03/19 07:55:47;;;;;;;10.82;6.80;;;11.30;99.90;;;;;;4977904;28;20100;-62
2023/03/19 07:58:13;;;;;;;11.85;6.60;;;11.20;99.90;;;;;;4977941;28;20030;-62
2023/03/19 08:00:39;;;;;;;14.60;7.13;;;11.20;99.90;;;;;;4978367;28;20049;-62
2023/03/19 08:03:05;;;;;;;12.63;6.78;;;11.20;99.90;;;;;;4977802;28;20034;-62
2023/03/19 08:05:30;;;;;;;16.10;7.32;;;11.30;99.90;;;;;;4978610;28;20034;-62
2023/03/19 08:07:56;;;;;;;15.50;6.70;;;11.40;99.90;;;;;;4978912;28;20034;-62
2023/03/19 08:10:23;;;;;;;16.25;6.90;;;11.50;99.90;;;;;;4977338;28;20030;-62
2023/03/19 08:12:49;;;;;;;12.20;6.72;;;11.50;99.90;;;;;;4978002;28;20146;-62
2023/03/19 08:15:15;;;;;;;12.88;7.63;;;11.50;99.90;;;;;;4977003;28;20098;-62
2023/03/19 08:17:40;;;;;;;10.80;6.22;;;11.40;99.90;;;;;;4977813;28;20022;-62
2023/03/19 08:20:12;;;;;;;13.95;6.70;;;11.50;99.90;;;;;;4977639;28;20084;-62
2023/03/19 08:22:38;;;;;;;13.82;6.30;;;11.50;99.90;;;;;;4978336;28;20055;-62
2023/03/19 08:25:05;;;;;;;13.55;7.22;;;11.60;99.90;;;;;;4977570;28;20030;-62
2023/03/19 08:27:34;;;;;;;16.55;6.55;;;11.60;99.90;;;;;;4978585;28;20030;-62
2023/03/19 08:30:00;;;;;;;11.13;6.32;;;11.60;99.90;;;;;;4978018;28;20027;-62
2023/03/19 08:32:26;;;;;;;11.18;6.03;;;11.80;99.90;;;;;;4977182;28;20030;-62
2023/03/19 08:34:52;;;;;;;12.93;6.97;;;12.00;99.90;;;;;;4978126;28;20023;-62
2023/03/19 08:37:18;;;;;;;13.52;6.22;;;12.20;99.90;;;;;;4978573;28;20030;-62
2023/03/19 08:39:43;;;;;;;12.30;6.35;;;12.10;99.90;;;;;;4978336;28;20023;-62
2023/03/19 08:42:09;;;;;;;11.13;5.65;;;12.30;99.90;;;;;;4978239;28;20035;-62
2023/03/19 08:44:34;;;;;;;18.42;6.78;;;12.30;99.90;;;;;;4978205;28;20038;-63
2023/03/19 08:47:00;;;;;;;14.48;6.35;;;12.40;99.90;;;;;;4977196;28;20027;-62
2023/03/19 08:49:25;;;;;;;8.65;5.45;;;12.40;99.90;;;;;;4977879;28;20022;-62
2023/03/19 08:51:51;;;;;;;11.05;5.90;;;12.30;99.90;;;;;;4978034;28;20102;-62
2023/03/19 08:54:17;;;;;;;15.60;6.45;;;12.10;99.90;;;;;;4977163;28;20023;-62
2023/03/19 08:56:42;;;;;;;10.75;5.97;;;12.10;99.90;;;;;;4978106;28;20023;-62
2023/03/19 08:59:08;;;;;;;8.63;5.72;;;12.10;99.90;;;;;;4977153;28;20034;-62
2023/03/19 09:01:34;;;;;;;11.77;5.68;;;12.10;99.90;;;;;;4976998;28;20121;-62
2023/03/19 09:04:00;;;;;;;12.55;5.85;;;12.20;99.90;;;;;;4977889;28;20030;-62
2023/03/19 09:06:25;;;;;;;12.38;5.57;;;12.30;99.90;;;;;;4976874;28;20026;-62
2023/03/19 09:08:51;;;;;;;14.63;6.55;;;12.30;99.90;;;;;;4977794;28;20023;-62
2023/03/19 09:11:17;;;;;;;13.68;6.07;;;12.30;99.90;;;;;;4976916;28;20030;-62
2023/03/19 09:13:42;;;;;;;12.40;5.82;;;12.30;99.90;;;;;;4976712;28;20066;-62
2023/03/19 09:16:08;;;;;;;9.93;5.97;;;12.40;99.90;;;;;;4977005;28;20027;-62
2023/03/19 09:18:34;;;;;;;15.48;6.60;;;12.50;99.90;;;;;;4977134;28;20026;-62
2023/03/19 09:21:00;;;;;;;9.50;5.43;;;12.60;99.90;;;;;;4977213;28;20090;-62
2023/03/19 09:23:26;;;;;;;16.70;5.97;;;12.70;99.90;;;;;;4977837;28;20027;-67
2023/03/19 09:25:52;;;;;;;9.93;5.35;;;12.80;99.90;;;;;;4976650;28;20022;-67
2023/03/19 09:28:18;;;;;;;8.70;5.60;;;12.70;99.90;;;;;;4978558;28;20030;-66
2023/03/19 09:30:48;;;;;;;9.90;5.30;;;12.80;99.90;;;;;;4981240;28;20026;-67
2023/03/19 09:33:15;;;;;;;14.27;5.30;;;12.90;99.90;;;;;;4980182;28;20034;-67
2023/03/19 09:35:41;;;;;;;9.95;5.22;;;12.80;99.90;;;;;;4980469;28;20019;-67
2023/03/19 09:38:07;;;;;;;8.45;4.55;;;12.80;99.90;;;;;;4980145;28;20034;-67
2023/03/19 09:40:40;;;;;;;9.07;4.38;;;12.90;99.90;;;;;;4980597;28;20019;-62
2023/03/19 09:43:33;;;;;;;12.00;5.72;;;12.90;99.90;;;;;;4980930;28;20027;-62
2023/03/19 09:46:02;;;;;;;12.38;4.40;;;12.90;99.90;;;;;;4980062;28;20023;-62
2023/03/19 09:48:53;;;;;;;11.18;4.57;;;13.20;99.90;;;;;;4979968;28;20027;-62
2023/03/19 09:51:30;;;;;;;6.67;4.03;;;13.50;99.90;;;;;;4980884;28;20114;-67
2023/03/19 09:54:01;;;;;;;9.30;3.80;;;13.60;99.90;;;;;;4979852;28;20027;-67
2023/03/19 09:56:27;;;;;;;7.38;3.70;;;13.80;99.90;;;;;;4980827;28;20029;-68
2023/03/19 09:58:52;;;;;;;6.25;3.60;;;14.00;99.90;;;;;;4980286;28;20118;-67
2023/03/19 10:02:07;;;;;;;5.70;3.83;;;13.90;99.90;;;;;;4979852;28;20120;-68
2023/03/19 10:05:09;;;;;;;9.05;3.80;;;13.90;99.90;;;;;;4950103;28;20129;-66
2023/03/19 10:07:53;;;;;;;9.38;3.97;;;14.00;99.90;;;;;;4980299;28;20022;-66
2023/03/19 10:10:37;;;;;;;10.43;4.13;;;14.00;99.90;;;;;;4980162;28;20063;-66
2023/03/19 10:13:16;;;;;;;9.18;4.57;;;14.10;99.90;;;;;;4979603;28;20113;-63
2023/03/19 10:15:43;;;;;;;10.40;4.95;;;14.10;99.90;;;;;;4979946;28;20027;-63
2023/03/19 10:18:17;;;;;;;6.22;4.13;;;14.10;99.90;;;;;;4980249;28;20034;-63
2023/03/19 10:21:24;;;;;;;7.13;4.38;;;14.00;99.90;;;;;;4979823;28;20023;-66
2023/03/19 10:24:02;;;;;;;16.13;5.97;;;13.90;99.90;;;;;;4940576;29;20032;-66
2023/03/19 10:26:31;;;;;;;13.70;4.88;;;14.00;99.90;;;;;;4924615;29;20036;-62
2023/03/19 10:29:05;;;;;;;11.48;5.43;;;13.90;99.90;;;;;;4924200;29;20031;-63
2023/03/19 10:31:45;;;;;;;9.45;5.25;;;13.70;99.90;;;;;;4940508;29;20035;-61
2023/03/19 10:34:23;;;;;;;13.30;5.70;;;13.70;99.90;;;;;;4924137;29;20155;-62
2023/03/19 10:36:48;;;;;;;9.55;5.68;;;13.80;99.90;;;;;;4924315;29;20110;-63
2023/03/19 10:39:17;;;;;;;11.18;5.78;;;13.80;99.90;;;;;;4939484;29;20082;-63
2023/03/19 10:41:48;;;;;;;10.32;4.65;;;13.80;99.90;;;;;;4940066;29;20059;-64
2023/03/19 10:44:28;;;;;;;9.82;5.15;;;13.80;99.90;;;;;;4923948;29;20032;-66
2023/03/19 10:46:57;;;;;;;8.90;4.57;;;13.90;99.90;;;;;;4923825;29;20043;-67
2023/03/19 10:49:23;;;;;;;10.30;4.68;;;13.90;99.90;;;;;;4923879;29;20035;-67
2023/03/19 10:51:49;;;;;;;8.27;4.68;;;14.30;99.90;;;;;;4924229;29;20036;-61
2023/03/19 10:54:22;;;;;;;6.00;4.15;;;14.40;99.90;;;;;;4923983;29;20019;-67
2023/03/19 10:56:49;;;;;;;9.25;4.57;;;14.80;99.90;;;;;;4929572;28;20038;-67
2023/03/19 10:59:31;;;;;;;8.40;3.72;;;14.80;99.90;;;;;;4978804;28;20117;-67
2023/03/19 11:02:01;;;;;;;8.20;3.70;;;15.10;99.90;;;;;;4979641;28;20034;-65
2023/03/19 11:04:28;;;;;;;6.55;3.40;;;15.30;99.90;;;;;;4978660;28;20022;-64
2023/03/19 11:07:00;;;;;;;8.00;3.55;;;15.50;99.90;;;;;;4979400;28;20102;-64
2023/03/19 11:09:34;;;;;;;7.95;3.60;;;15.30;99.90;;;;;;4979282;28;20037;-64
2023/03/19 11:12:20;;;;;;;7.22;3.70;;;15.10;99.90;;;;;;4979526;28;20033;-64
2023/03/19 11:14:48;;;;;;;7.10;4.25;;;15.00;99.90;;;;;;4978222;28;20030;-66
2023/03/19 11:17:22;;;;;;;6.13;3.33;;;14.60;99.90;;;;;;4979205;28;20045;-66
2023/03/19 11:19:58;;;;;;;7.03;4.53;;;14.80;99.90;;;;;;4979507;28;20022;-66
2023/03/19 11:22:31;;;;;;;7.18;3.50;;;14.90;99.90;;;;;;4979510;28;20045;-67
2023/03/19 11:25:19;;;;;;;8.57;3.15;;;15.00;99.90;;;;;;4978463;28;20031;-64
2023/03/19 11:28:02;;;;;;;6.80;3.55;;;15.00;99.90;;;;;;4978265;28;20027;-64
2023/03/19 11:30:36;;;;;;;4.82;3.40;;;14.80;99.90;;;;;;4978024;28;20026;-64
2023/03/19 11:33:11;;;;;;;6.70;2.85;;;15.00;99.90;;;;;;4978972;28;20032;-64
2023/03/19 11:35:42;;;;;;;8.30;3.20;;;15.00;99.90;;;;;;4979201;28;20029;-64
2023/03/19 11:38:28;;;;;;;6.13;3.53;;;15.20;99.90;;;;;;4978034;28;20034;-64
2023/03/19 11:41:07;;;;;;;8.98;3.60;;;15.10;99.90;;;;;;4978963;28;20042;-64
2023/03/19 11:43:42;;;;;;;6.93;3.03;;;15.10;99.90;;;;;;4978808;28;20027;-64
2023/03/19 11:46:20;;;;;;;7.35;3.28;;;15.40;99.90;;;;;;4977977;28;20029;-64
2023/03/19 11:49:15;;;;;;;5.85;2.85;;;15.60;99.90;;;;;;4978348;28;20117;-67
2023/03/19 11:51:59;;;;;;;6.82;3.28;;;15.60;99.90;;;;;;4977331;28;20105;-67
2023/03/19 11:54:44;;;;;;;4.80;2.72;;;15.60;99.90;;;;;;4978597;28;20043;-67
2023/03/19 11:58:01;;;;;;;4.55;2.20;;;15.70;99.90;;;;;;4977785;28;20054;-67
2023/03/19 12:00:26;;;;;;;4.90;1.83;;;16.00;99.90;;;;;;4977215;28;20058;-67
2023/03/19 12:03:06;;;;;;;4.53;1.80;;;16.50;99.90;;;;;;4978432;28;20022;-68
2023/03/19 12:05:45;;;;;;;3.38;1.95;;;16.50;99.90;;;;;;4977589;28;20023;-67
2023/03/19 12:08:30;;;;;;;4.07;1.60;;;16.40;99.90;;;;;;4978475;28;20029;-67
2023/03/19 12:11:11;;;;;;;3.67;1.67;;;16.10;99.90;;;;;;4977953;28;20057;-68
2023/03/19 12:16:39;;;;;;;1.55;1.10;;;15.90;99.90;;;;;;5022144;22;20058;-69
2023/03/19 12:19:27;;;;;;;1.55;1.10;;;15.90;99.90;;;;;;4997844;28;20026;-69
2023/03/19 12:22:15;;;;;;;2.10;1.33;;;15.60;99.90;;;;;;4996918;28;20027;-69
2023/03/19 12:25:15;;;;;;;3.38;1.38;;;15.50;99.90;;;;;;4996725;28;20022;-69
2023/03/19 12:28:02;;;;;;;2.90;1.10;;;15.30;99.90;;;;;;4996859;28;20037;-69
2023/03/19 12:30:33;;;;;;;4.25;1.70;;;15.20;99.90;;;;;;4996773;28;20038;-69
2023/03/19 12:33:10;;;;;;;1.95;1.65;;;15.10;99.90;;;;;;4997786;28;20029;-69
2023/03/19 12:35:38;;;;;;;4.78;1.55;;;15.10;99.90;;;;;;4996589;28;20034;-69
2023/03/19 12:38:16;;;;;;;4.55;1.45;;;14.90;99.90;;;;;;4996931;28;20031;-69
2023/03/19 12:41:06;;;;;;;4.72;1.70;;;14.80;99.90;;;;;;4996659;28;20088;-69
2023/03/19 12:43:55;;;;;;;5.78;1.73;;;14.70;99.90;;;;;;4997805;28;20041;-69
2023/03/19 12:46:30;;;;;;;3.08;2.33;;;14.50;99.90;;;;;;4997178;28;20037;-69
2023/03/19 12:48:59;;;;;;;5.20;3.03;;;14.50;99.90;;;;;;4997579;28;20034;-69
2023/03/19 12:51:34;;;;;;;5.40;2.60;;;14.30;99.90;;;;;;4996648;28;20050;-69
2023/03/19 12:54:17;;;;;;;6.25;2.78;;;13.80;99.90;;;;;;4996758;28;20023;-69
2023/03/19 12:56:54;;;;;;;4.28;2.80;;;13.60;99.90;;;;;;4996681;28;20055;-69
2023/03/19 12:59:54;;;;;;;5.10;2.53;;;13.80;99.90;;;;;;4996580;28;20023;-68